5MA6 weather

St. Luke's Heliport
New Bedford, Massachusetts, United States

Public forecast

Using degrees Fahrenheit for public forecast. Weather courtesy of forecast.io.

METAR (pilot weather report)

Closest report is New Bedford Regional Airport, 3.1 nm (5.7 km) NNW. Retrieved 2019/07/21 01:53 UTC (24 minutes ago):

KEWB 210153Z 23005KT 10SM CLR 27/23 A2977 RMK AO2 SLP081 T02720233

TAF (pilot weather forecast)

Forecast is more than 12 hours old.

Closest forecast is Cape Cod Coast Guard Air Station, 18.8 nm (34.8 km) E. Retrieved 2019/07/20 00:24 UTC (1 day ago):

TAF KFMH 202322Z 2100/2124 23008KT P6SM FEW200 FM211200 26007KT P6SM FEW200 FM211500 25009KT P6SM SCT120 FM212000 24012KT P6SM FEW200